createdAt,value
2019-03-27T19:37:36.489Z,7.23
2019-03-27T19:42:40.879Z,7.00
2019-03-27T19:47:45.297Z,6.97
2019-03-27T19:52:49.693Z,7.33
2019-03-27T19:57:54.078Z,7.43
2019-03-27T20:02:58.500Z,7.40
2019-03-27T20:08:02.932Z,7.50
2019-03-27T20:13:07.265Z,7.53
2019-03-27T20:18:11.626Z,8.27
2019-03-27T20:23:15.976Z,7.73
2019-03-27T20:28:20.358Z,7.57
2019-03-27T20:33:24.775Z,7.27
2019-03-27T20:38:29.184Z,7.20
2019-03-27T20:43:33.571Z,7.13
2019-03-27T20:48:38.004Z,7.50
2019-03-27T20:53:42.418Z,7.33
2019-03-27T20:58:46.773Z,7.50
2019-03-27T21:03:51.209Z,7.20
2019-03-27T21:08:55.571Z,7.47
2019-03-27T21:13:59.924Z,7.43
2019-03-27T21:19:04.312Z,8.03
2019-03-27T21:24:08.694Z,8.10
2019-03-27T21:29:13.124Z,8.80
2019-03-27T21:34:17.502Z,8.03
2019-03-27T21:39:21.924Z,9.07
2019-03-27T21:44:26.341Z,8.73
2019-03-27T21:49:30.743Z,9.03
2019-03-27T21:54:35.124Z,9.10
2019-03-27T21:59:39.489Z,9.23
2019-03-27T22:04:43.848Z,9.33
2019-03-27T22:09:48.287Z,9.77
2019-03-27T22:14:52.741Z,9.50
2019-03-27T22:19:57.184Z,9.60
2019-03-27T22:25:01.589Z,9.50
2019-03-27T22:30:07.699Z,8.67
2019-03-27T22:35:13.412Z,9.73
2019-03-27T22:40:17.785Z,9.80
2019-03-27T22:45:22.154Z,10.50
2019-03-27T22:50:27.258Z,10.53
2019-03-27T22:55:31.668Z,10.13
2019-03-27T23:00:40.690Z,9.87
2019-03-27T23:05:45.826Z,9.77
2019-03-27T23:10:50.244Z,9.67
2019-03-27T23:15:55.677Z,10.03
2019-03-27T23:21:00.060Z,9.30
2019-03-27T23:26:04.448Z,9.77
2019-03-27T23:31:08.880Z,9.70
2019-03-27T23:36:13.226Z,9.13
2019-03-27T23:41:17.612Z,10.13
2019-03-27T23:46:21.969Z,10.10
2019-03-27T23:51:26.414Z,9.90
2019-03-27T23:56:30.757Z,9.60
